Etusivu
METAR-TAF:

METAR-TAF

Lentoasemat :

Port of Spain, Trinidad, Trinidad ja Tobago

Leveyspiiri: 10-37N, Pituuspiiri: 061-21W, korkeus merenpinnasta: 12 m

Tämänhetkinen sää

Tämä raportti tehtiin 50 minuuttia sitten, kello 03.00 UTC
Tuuli 7 kn idästä/kaakosta
Lämpötila 26°C
Kosteus 84%
Ilmanpaine 1013 hPa
Näkyvyys 10 km tai enemmän
Muutamia pilviä 2200 ft:n korkeudessa

METAR: TTPP 100300Z 11007KT 9999 FEW022 26/23 Q1013 NOSIG

Aika: 23:50 (03:50 UTC)

Sääennuste

Tämä raportti tehtiin 5 tuntia ja 50 minuuttia sitten, kello 22.00 UTC
Ennuste voimassa 10. päivästä klo 00 UTC - 10. päivään klo 24 UTC
Tuuli 5 kn idästä
Näkyvyys 10 km tai enemmän
Muutamia pilviä 1800 ft:n korkeudessa
Tulossa
10. päivästä klo 12 UTC - 10. päivään klo 14 UTC
Tuuli 15 kn idästä/kaakosta
Hajanaisia pilviä 2200 ft:n korkeudessa

TAF: TTPP 092200Z 1000/1024 10005KT 9999 FEW018 BECMG 1012/1014 12015KT SCT022

Säähavainnot ja -ennusteet yli 4000 lentoasemalta (METAR- ja TAF-raportit).

Käytössä olevat sääasemat on merkitty karttaan keltaisilla ja punaisilla pisteillä.

Aseta hiiri pisteen päälle nähdäksesi sääaseman nimen.

Klikkaa sitten nähdäksesi säähavainnot ja -ennusteet.

Kartan vaihtaminen: klikkaa mustalla rastilla varustettuja vihreitä pisteitä, niin voit zoomata sisään; viivalla varustettua vihreää pistettä, niin voit zoomata ulos tai vihreitä nuolia, niin pääset viereisille kartoille.


METAR-TAF: